sensor_id;sensor_type;location;lat;lon;timestamp;pressure;altitude;pressure_sealevel;temperature;humidity
76819;BME280;65772;51.096;17.006;2023-04-28T00:02:18;100694.14;;;12.48;41.72
76819;BME280;65772;51.096;17.006;2023-04-28T00:04:48;100690.20;;;12.47;41.85
76819;BME280;65772;51.096;17.006;2023-04-28T00:07:20;100683.87;;;12.48;42.07
76819;BME280;65772;51.096;17.006;2023-04-28T00:09:50;100684.39;;;12.48;42.15
76819;BME280;65772;51.096;17.006;2023-04-28T00:12:21;100685.05;;;12.47;42.08
76819;BME280;65772;51.096;17.006;2023-04-28T00:14:51;100686.58;;;12.46;42.06
76819;BME280;65772;51.096;17.006;2023-04-28T00:17:22;100688.27;;;12.46;42.07
76819;BME280;65772;51.096;17.006;2023-04-28T00:19:53;100685.52;;;12.45;42.04
76819;BME280;65772;51.096;17.006;2023-04-28T00:22:24;100677.64;;;12.45;42.10
76819;BME280;65772;51.096;17.006;2023-04-28T00:24:54;100676.10;;;12.45;42.06
76819;BME280;65772;51.096;17.006;2023-04-28T00:27:25;100673.00;;;12.45;42.03
76819;BME280;65772;51.096;17.006;2023-04-28T00:29:55;100673.17;;;12.45;42.21
76819;BME280;65772;51.096;17.006;2023-04-28T00:32:26;100670.27;;;12.45;42.08
76819;BME280;65772;51.096;17.006;2023-04-28T00:34:57;100670.77;;;12.45;42.17
76819;BME280;65772;51.096;17.006;2023-04-28T00:37:27;100672.64;;;12.44;42.13
76819;BME280;65772;51.096;17.006;2023-04-28T00:39:58;100672.96;;;12.43;42.18
76819;BME280;65772;51.096;17.006;2023-04-28T00:42:29;100670.54;;;12.43;42.19
76819;BME280;65772;51.096;17.006;2023-04-28T00:44:59;100669.00;;;12.43;42.16
76819;BME280;65772;51.096;17.006;2023-04-28T00:47:35;100671.94;;;12.44;42.28
76819;BME280;65772;51.096;17.006;2023-04-28T00:50:08;100668.36;;;12.44;42.27
76819;BME280;65772;51.096;17.006;2023-04-28T00:52:39;100666.52;;;12.46;42.25
76819;BME280;65772;51.096;17.006;2023-04-28T00:55:10;100662.43;;;12.47;42.35
76819;BME280;65772;51.096;17.006;2023-04-28T00:57:45;100658.86;;;12.48;42.30
76819;BME280;65772;51.096;17.006;2023-04-28T01:00:16;100659.57;;;12.48;42.28
76819;BME280;65772;51.096;17.006;2023-04-28T01:02:47;100648.80;;;12.49;42.09
76819;BME280;65772;51.096;17.006;2023-04-28T01:05:20;100647.77;;;12.49;42.04
76819;BME280;65772;51.096;17.006;2023-04-28T01:07:51;100648.63;;;12.49;42.22
76819;BME280;65772;51.096;17.006;2023-04-28T01:10:22;100649.48;;;12.49;42.11
76819;BME280;65772;51.096;17.006;2023-04-28T01:12:53;100648.96;;;12.49;41.97
76819;BME280;65772;51.096;17.006;2023-04-28T01:15:23;100646.18;;;12.47;41.98
76819;BME280;65772;51.096;17.006;2023-04-28T01:17:55;100645.13;;;12.46;41.99
76819;BME280;65772;51.096;17.006;2023-04-28T01:20:26;100643.77;;;12.46;42.20
76819;BME280;65772;51.096;17.006;2023-04-28T01:22:57;100643.23;;;12.46;42.28
76819;BME280;65772;51.096;17.006;2023-04-28T01:25:28;100642.55;;;12.46;42.21
76819;BME280;65772;51.096;17.006;2023-04-28T01:27:58;100638.77;;;12.46;42.21
76819;BME280;65772;51.096;17.006;2023-04-28T01:30:29;100634.69;;;12.46;42.46
76819;BME280;65772;51.096;17.006;2023-04-28T01:33:00;100632.98;;;12.47;42.34
76819;BME280;65772;51.096;17.006;2023-04-28T01:35:30;100631.59;;;12.45;42.33
76819;BME280;65772;51.096;17.006;2023-04-28T01:38:01;100625.75;;;12.45;42.37
76819;BME280;65772;51.096;17.006;2023-04-28T01:40:32;100624.22;;;12.45;42.50
76819;BME280;65772;51.096;17.006;2023-04-28T01:43:02;100626.65;;;12.46;42.44
76819;BME280;65772;51.096;17.006;2023-04-28T01:45:33;100628.69;;;12.46;42.34
76819;BME280;65772;51.096;17.006;2023-04-28T01:48:04;100627.47;;;12.45;42.53
76819;BME280;65772;51.096;17.006;2023-04-28T01:50:35;100626.94;;;12.44;42.56
76819;BME280;65772;51.096;17.006;2023-04-28T01:53:06;100629.45;;;12.43;42.56
76819;BME280;65772;51.096;17.006;2023-04-28T01:55:36;100629.58;;;12.41;42.72
76819;BME280;65772;51.096;17.006;2023-04-28T01:58:07;100623.58;;;12.41;42.78
76819;BME280;65772;51.096;17.006;2023-04-28T02:00:37;100623.56;;;12.40;42.86
76819;BME280;65772;51.096;17.006;2023-04-28T02:03:08;100626.95;;;12.39;42.71
76819;BME280;65772;51.096;17.006;2023-04-28T02:05:38;100623.48;;;12.37;42.82
76819;BME280;65772;51.096;17.006;2023-04-28T02:08:09;100623.09;;;12.35;43.00
76819;BME280;65772;51.096;17.006;2023-04-28T02:10:40;100623.42;;;12.35;42.90
76819;BME280;65772;51.096;17.006;2023-04-28T02:13:11;100615.85;;;12.33;43.04
76819;BME280;65772;51.096;17.006;2023-04-28T02:15:42;100613.58;;;12.32;43.13
76819;BME280;65772;51.096;17.006;2023-04-28T02:18:14;100614.40;;;12.31;43.32
76819;BME280;65772;51.096;17.006;2023-04-28T02:20:44;100615.23;;;12.30;43.30
76819;BME280;65772;51.096;17.006;2023-04-28T02:23:15;100610.93;;;12.29;43.31
76819;BME280;65772;51.096;17.006;2023-04-28T02:25:45;100610.75;;;12.28;43.42
76819;BME280;65772;51.096;17.006;2023-04-28T02:28:16;100611.77;;;12.27;43.46
76819;BME280;65772;51.096;17.006;2023-04-28T02:30:46;100613.96;;;12.26;43.32
76819;BME280;65772;51.096;17.006;2023-04-28T02:33:18;100611.35;;;12.25;43.35
76819;BME280;65772;51.096;17.006;2023-04-28T02:35:58;100610.30;;;12.24;43.51
76819;BME280;65772;51.096;17.006;2023-04-28T02:38:30;100612.30;;;12.23;43.49
76819;BME280;65772;51.096;17.006;2023-04-28T02:41:01;100612.60;;;12.21;43.64
76819;BME280;65772;51.096;17.006;2023-04-28T02:43:33;100609.84;;;12.20;43.75
76819;BME280;65772;51.096;17.006;2023-04-28T02:46:05;100603.80;;;12.19;43.76
76819;BME280;65772;51.096;17.006;2023-04-28T02:48:36;100604.84;;;12.18;43.78
76819;BME280;65772;51.096;17.006;2023-04-28T02:51:06;100600.03;;;12.18;44.03
76819;BME280;65772;51.096;17.006;2023-04-28T02:53:37;100600.38;;;12.17;43.89
76819;BME280;65772;51.096;17.006;2023-04-28T02:56:08;100596.06;;;12.16;44.02
76819;BME280;65772;51.096;17.006;2023-04-28T02:58:38;100597.41;;;12.16;44.06
76819;BME280;65772;51.096;17.006;2023-04-28T03:01:09;100595.69;;;12.15;43.89
76819;BME280;65772;51.096;17.006;2023-04-28T03:03:39;100600.80;;;12.15;43.96
76819;BME280;65772;51.096;17.006;2023-04-28T03:06:10;100602.80;;;12.13;43.86
76819;BME280;65772;51.096;17.006;2023-04-28T03:08:41;100600.38;;;12.12;44.09
76819;BME280;65772;51.096;17.006;2023-04-28T03:11:12;100598.64;;;12.11;44.02
76819;BME280;65772;51.096;17.006;2023-04-28T03:13:42;100600.38;;;12.12;44.00
76819;BME280;65772;51.096;17.006;2023-04-28T03:16:13;100600.67;;;12.10;44.09
76819;BME280;65772;51.096;17.006;2023-04-28T03:18:44;100598.60;;;12.10;44.00
76819;BME280;65772;51.096;17.006;2023-04-28T03:21:14;100597.89;;;12.09;44.12
76819;BME280;65772;51.096;17.006;2023-04-28T03:23:45;100595.65;;;12.08;44.11
76819;BME280;65772;51.096;17.006;2023-04-28T03:26:16;100596.48;;;12.07;44.11
76819;BME280;65772;51.096;17.006;2023-04-28T03:28:46;100595.61;;;12.06;44.10
76819;BME280;65772;51.096;17.006;2023-04-28T03:31:17;100595.93;;;12.05;44.04
76819;BME280;65772;51.096;17.006;2023-04-28T03:33:48;100598.12;;;12.04;43.97
76819;BME280;65772;51.096;17.006;2023-04-28T03:36:19;100598.27;;;12.03;44.08
76819;BME280;65772;51.096;17.006;2023-04-28T03:38:50;100597.58;;;12.03;44.22
76819;BME280;65772;51.096;17.006;2023-04-28T03:41:21;100602.68;;;12.02;44.22
76819;BME280;65772;51.096;17.006;2023-04-28T03:44:29;100604.30;;;12.00;44.17
76819;BME280;65772;51.096;17.006;2023-04-28T03:47:00;100599.30;;;11.98;44.46
76819;BME280;65772;51.096;17.006;2023-04-28T03:49:31;100595.14;;;11.95;44.43
76819;BME280;65772;51.096;17.006;2023-04-28T03:52:01;100596.06;;;11.92;44.55
76819;BME280;65772;51.096;17.006;2023-04-28T03:54:33;100590.31;;;11.89;44.75
76819;BME280;65772;51.096;17.006;2023-04-28T03:57:03;100590.58;;;11.85;44.62
76819;BME280;65772;51.096;17.006;2023-04-28T03:59:34;100586.22;;;11.82;44.81
76819;BME280;65772;51.096;17.006;2023-04-28T04:02:05;100588.02;;;11.80;44.83
76819;BME280;65772;51.096;17.006;2023-04-28T04:04:35;100591.89;;;11.78;44.84
76819;BME280;65772;51.096;17.006;2023-04-28T04:07:06;100591.16;;;11.76;44.82
76819;BME280;65772;51.096;17.006;2023-04-28T04:09:37;100593.33;;;11.74;44.92
76819;BME280;65772;51.096;17.006;2023-04-28T04:12:08;100596.04;;;11.73;45.02
76819;BME280;65772;51.096;17.006;2023-04-28T04:14:38;100596.54;;;11.73;44.79
76819;BME280;65772;51.096;17.006;2023-04-28T04:17:09;100594.30;;;11.73;44.90
76819;BME280;65772;51.096;17.006;2023-04-28T04:19:40;100596.71;;;11.73;45.02
76819;BME280;65772;51.096;17.006;2023-04-28T04:22:12;100592.95;;;11.73;45.68
76819;BME280;65772;51.096;17.006;2023-04-28T04:24:42;100596.24;;;11.74;45.35
76819;BME280;65772;51.096;17.006;2023-04-28T04:27:13;100598.27;;;11.73;45.17
76819;BME280;65772;51.096;17.006;2023-04-28T04:29:43;100589.66;;;11.72;45.06
76819;BME280;65772;51.096;17.006;2023-04-28T04:32:15;100587.73;;;11.70;45.32
76819;BME280;65772;51.096;17.006;2023-04-28T04:34:45;100591.23;;;11.67;45.43
76819;BME280;65772;51.096;17.006;2023-04-28T04:37:16;100590.31;;;11.65;45.75
76819;BME280;65772;51.096;17.006;2023-04-28T04:39:53;100584.95;;;11.62;45.60
76819;BME280;65772;51.096;17.006;2023-04-28T04:42:24;100587.77;;;11.60;45.54
76819;BME280;65772;51.096;17.006;2023-04-28T04:45:06;100588.72;;;11.58;45.80
76819;BME280;65772;51.096;17.006;2023-04-28T04:47:37;100584.89;;;11.55;45.79
76819;BME280;65772;51.096;17.006;2023-04-28T04:50:09;100580.41;;;11.54;46.02
76819;BME280;65772;51.096;17.006;2023-04-28T04:52:40;100581.91;;;11.52;45.93
76819;BME280;65772;51.096;17.006;2023-04-28T04:55:11;100581.17;;;11.51;46.07
76819;BME280;65772;51.096;17.006;2023-04-28T04:57:42;100582.17;;;11.50;46.15
76819;BME280;65772;51.096;17.006;2023-04-28T05:00:33;100580.96;;;11.49;46.27
76819;BME280;65772;51.096;17.006;2023-04-28T05:03:04;100585.71;;;11.48;46.13
76819;BME280;65772;51.096;17.006;2023-04-28T05:05:36;100581.27;;;11.48;46.15
76819;BME280;65772;51.096;17.006;2023-04-28T05:08:12;100580.41;;;11.48;46.31
76819;BME280;65772;51.096;17.006;2023-04-28T05:10:42;100581.25;;;11.48;46.03
76819;BME280;65772;51.096;17.006;2023-04-28T05:13:13;100581.05;;;11.47;46.00
76819;BME280;65772;51.096;17.006;2023-04-28T05:15:43;100577.75;;;11.46;46.27
76819;BME280;65772;51.096;17.006;2023-04-28T05:18:32;100574.67;;;11.45;46.22
76819;BME280;65772;51.096;17.006;2023-04-28T05:21:04;100570.73;;;11.45;46.16
76819;BME280;65772;51.096;17.006;2023-04-28T05:23:34;100567.98;;;11.45;46.56
76819;BME280;65772;51.096;17.006;2023-04-28T05:26:05;100572.77;;;11.45;46.33
76819;BME280;65772;51.096;17.006;2023-04-28T05:28:37;100574.16;;;11.45;46.30
76819;BME280;65772;51.096;17.006;2023-04-28T05:31:08;100574.00;;;11.46;46.25
76819;BME280;65772;51.096;17.006;2023-04-28T05:33:39;100572.98;;;11.46;46.08
76819;BME280;65772;51.096;17.006;2023-04-28T05:36:09;100572.45;;;11.46;45.99
76819;BME280;65772;51.096;17.006;2023-04-28T05:38:40;100572.17;;;11.47;45.93
76819;BME280;65772;51.096;17.006;2023-04-28T05:41:11;100572.19;;;11.47;46.15
76819;BME280;65772;51.096;17.006;2023-04-28T05:43:41;100567.27;;;11.49;46.13
76819;BME280;65772;51.096;17.006;2023-04-28T05:46:12;100569.20;;;11.50;46.41
76819;BME280;65772;51.096;17.006;2023-04-28T05:48:58;100566.85;;;11.52;46.35
76819;BME280;65772;51.096;17.006;2023-04-28T05:51:33;100569.45;;;11.53;46.56
76819;BME280;65772;51.096;17.006;2023-04-28T05:54:03;100561.10;;;11.54;46.51
76819;BME280;65772;51.096;17.006;2023-04-28T05:56:38;100557.36;;;11.55;46.63
76819;BME280;65772;51.096;17.006;2023-04-28T05:59:10;100556.55;;;11.57;46.68
76819;BME280;65772;51.096;17.006;2023-04-28T06:01:40;100561.55;;;11.58;46.67
76819;BME280;65772;51.096;17.006;2023-04-28T06:04:11;100560.05;;;11.59;46.58
76819;BME280;65772;51.096;17.006;2023-04-28T06:06:42;100566.25;;;11.61;46.51
76819;BME280;65772;51.096;17.006;2023-04-28T06:09:13;100563.56;;;11.62;46.57
76819;BME280;65772;51.096;17.006;2023-04-28T06:11:44;100561.71;;;11.63;46.61
76819;BME280;65772;51.096;17.006;2023-04-28T06:14:14;100561.06;;;11.64;46.54
76819;BME280;65772;51.096;17.006;2023-04-28T06:16:45;100555.42;;;11.65;46.72
76819;BME280;65772;51.096;17.006;2023-04-28T06:19:16;100554.10;;;11.66;46.77
76819;BME280;65772;51.096;17.006;2023-04-28T06:21:47;100548.64;;;11.67;46.74
76819;BME280;65772;51.096;17.006;2023-04-28T06:24:19;100545.08;;;11.68;46.77
76819;BME280;65772;51.096;17.006;2023-04-28T06:26:50;100540.19;;;11.70;46.89
76819;BME280;65772;51.096;17.006;2023-04-28T06:29:21;100541.61;;;11.72;47.05
76819;BME280;65772;51.096;17.006;2023-04-28T06:31:52;100543.56;;;11.74;47.19
76819;BME280;65772;51.096;17.006;2023-04-28T06:34:26;100541.23;;;11.77;47.35
76819;BME280;65772;51.096;17.006;2023-04-28T06:37:00;100540.98;;;11.80;47.58
76819;BME280;65772;51.096;17.006;2023-04-28T06:39:30;100540.58;;;11.83;47.52
76819;BME280;65772;51.096;17.006;2023-04-28T06:42:01;100542.37;;;11.86;47.42
76819;BME280;65772;51.096;17.006;2023-04-28T06:44:35;100543.11;;;11.89;47.54
76819;BME280;65772;51.096;17.006;2023-04-28T06:47:05;100538.25;;;11.92;47.23
76819;BME280;65772;51.096;17.006;2023-04-28T06:49:39;100538.52;;;11.95;46.80
76819;BME280;65772;51.096;17.006;2023-04-28T06:52:12;100536.02;;;11.99;46.63
76819;BME280;65772;51.096;17.006;2023-04-28T06:54:42;100533.55;;;12.02;46.51
76819;BME280;65772;51.096;17.006;2023-04-28T06:57:13;100536.73;;;12.05;46.46
76819;BME280;65772;51.096;17.006;2023-04-28T06:59:43;100531.52;;;12.09;46.54
76819;BME280;65772;51.096;17.006;2023-04-28T07:02:14;100527.16;;;12.13;46.61
76819;BME280;65772;51.096;17.006;2023-04-28T07:04:45;100529.48;;;12.16;46.72
76819;BME280;65772;51.096;17.006;2023-04-28T07:07:16;100526.13;;;12.19;46.87
76819;BME280;65772;51.096;17.006;2023-04-28T07:09:47;100516.95;;;12.22;46.56
76819;BME280;65772;51.096;17.006;2023-04-28T07:12:17;100515.83;;;12.25;46.45
76819;BME280;65772;51.096;17.006;2023-04-28T07:14:48;100513.52;;;12.28;46.74
76819;BME280;65772;51.096;17.006;2023-04-28T07:17:19;100514.77;;;12.31;46.84
76819;BME280;65772;51.096;17.006;2023-04-28T07:19:50;100511.77;;;12.33;47.00
76819;BME280;65772;51.096;17.006;2023-04-28T07:22:20;100510.64;;;12.36;46.83
76819;BME280;65772;51.096;17.006;2023-04-28T07:24:51;100505.58;;;12.39;46.80
76819;BME280;65772;51.096;17.006;2023-04-28T07:27:21;100504.45;;;12.42;46.61
76819;BME280;65772;51.096;17.006;2023-04-28T07:29:52;100501.10;;;12.45;46.48
76819;BME280;65772;51.096;17.006;2023-04-28T07:32:22;100502.56;;;12.49;46.61
76819;BME280;65772;51.096;17.006;2023-04-28T07:34:53;100503.28;;;12.51;46.27
76819;BME280;65772;51.096;17.006;2023-04-28T07:37:24;100500.43;;;12.54;46.04
76819;BME280;65772;51.096;17.006;2023-04-28T07:39:54;100497.71;;;12.55;45.85
76819;BME280;65772;51.096;17.006;2023-04-28T07:42:25;100498.27;;;12.56;45.89
76819;BME280;65772;51.096;17.006;2023-04-28T07:44:56;100495.27;;;12.59;45.59
76819;BME280;65772;51.096;17.006;2023-04-28T07:47:27;100493.25;;;12.61;45.48
76819;BME280;65772;51.096;17.006;2023-04-28T07:49:58;100487.81;;;12.63;45.66
76819;BME280;65772;51.096;17.006;2023-04-28T07:52:33;100486.20;;;12.67;45.87
76819;BME280;65772;51.096;17.006;2023-04-28T07:55:04;100482.69;;;12.70;45.73
76819;BME280;65772;51.096;17.006;2023-04-28T07:57:35;100479.10;;;12.72;45.56
76819;BME280;65772;51.096;17.006;2023-04-28T08:00:09;100475.06;;;12.74;45.56
76819;BME280;65772;51.096;17.006;2023-04-28T08:02:40;100473.75;;;12.77;45.63
76819;BME280;65772;51.096;17.006;2023-04-28T08:05:11;100472.44;;;12.79;45.72
76819;BME280;65772;51.096;17.006;2023-04-28T08:07:42;100472.91;;;12.85;47.36
76819;BME280;65772;51.096;17.006;2023-04-28T08:10:13;100474.44;;;12.93;47.57
76819;BME280;65772;51.096;17.006;2023-04-28T08:12:44;100473.89;;;12.98;46.62
76819;BME280;65772;51.096;17.006;2023-04-28T08:15:14;100469.36;;;13.04;46.93
76819;BME280;65772;51.096;17.006;2023-04-28T08:17:46;100468.48;;;13.10;46.98
76819;BME280;65772;51.096;17.006;2023-04-28T08:20:17;100468.48;;;13.17;47.14
76819;BME280;65772;51.096;17.006;2023-04-28T08:22:52;100467.60;;;13.24;46.83
76819;BME280;65772;51.096;17.006;2023-04-28T08:25:24;100462.77;;;13.31;46.13
76819;BME280;65772;51.096;17.006;2023-04-28T08:27:54;100461.69;;;13.37;46.16
76819;BME280;65772;51.096;17.006;2023-04-28T08:30:26;100457.70;;;13.43;45.49
76819;BME280;65772;51.096;17.006;2023-04-28T08:32:57;100455.08;;;13.50;45.51
76819;BME280;65772;51.096;17.006;2023-04-28T08:35:28;100452.45;;;13.55;45.22
76819;BME280;65772;51.096;17.006;2023-04-28T08:37:59;100453.08;;;13.62;44.76
76819;BME280;65772;51.096;17.006;2023-04-28T08:40:29;100446.50;;;13.68;44.44
76819;BME280;65772;51.096;17.006;2023-04-28T08:43:00;100444.88;;;13.73;44.65
76819;BME280;65772;51.096;17.006;2023-04-28T08:45:31;100442.89;;;13.78;44.25
76819;BME280;65772;51.096;17.006;2023-04-28T08:48:16;100437.66;;;13.82;44.09
76819;BME280;65772;51.096;17.006;2023-04-28T08:50:48;100436.55;;;13.86;43.83
76819;BME280;65772;51.096;17.006;2023-04-28T08:53:23;100427.66;;;13.89;43.49
76819;BME280;65772;51.096;17.006;2023-04-28T08:55:56;100428.73;;;13.92;43.35
76819;BME280;65772;51.096;17.006;2023-04-28T08:58:27;100428.13;;;13.96;42.85
76819;BME280;65772;51.096;17.006;2023-04-28T09:00:58;100428.68;;;13.99;42.92
76819;BME280;65772;51.096;17.006;2023-04-28T09:03:31;100428.36;;;14.01;42.17
76819;BME280;65772;51.096;17.006;2023-04-28T09:06:02;100425.46;;;14.02;42.08
76819;BME280;65772;51.096;17.006;2023-04-28T09:08:33;100427.19;;;14.02;41.81
76819;BME280;65772;51.096;17.006;2023-04-28T09:11:10;100424.45;;;14.03;41.36
76819;BME280;65772;51.096;17.006;2023-04-28T09:13:42;100421.55;;;14.04;41.69
76819;BME280;65772;51.096;17.006;2023-04-28T09:16:12;100415.57;;;14.05;41.86
76819;BME280;65772;51.096;17.006;2023-04-28T09:18:56;100414.04;;;14.05;42.00
76819;BME280;65772;51.096;17.006;2023-04-28T09:21:27;100415.27;;;14.07;41.77
76819;BME280;65772;51.096;17.006;2023-04-28T09:23:57;100403.61;;;14.09;41.63
76819;BME280;65772;51.096;17.006;2023-04-28T09:26:38;100401.39;;;14.10;41.81
76819;BME280;65772;51.096;17.006;2023-04-28T09:29:17;100399.19;;;14.12;42.35
76819;BME280;65772;51.096;17.006;2023-04-28T09:31:47;100392.31;;;14.11;42.29
76819;BME280;65772;51.096;17.006;2023-04-28T09:34:18;100382.55;;;14.13;42.71
76819;BME280;65772;51.096;17.006;2023-04-28T09:36:49;100385.85;;;14.15;42.76
76819;BME280;65772;51.096;17.006;2023-04-28T09:39:30;100384.54;;;14.18;42.82
76819;BME280;65772;51.096;17.006;2023-04-28T09:42:01;100378.90;;;14.20;42.39
76819;BME280;65772;51.096;17.006;2023-04-28T09:44:33;100378.44;;;14.24;42.86
76819;BME280;65772;51.096;17.006;2023-04-28T09:47:19;100375.58;;;14.27;42.25
76819;BME280;65772;51.096;17.006;2023-04-28T09:49:57;100373.73;;;14.31;42.41
76819;BME280;65772;51.096;17.006;2023-04-28T09:52:28;100364.84;;;14.34;42.33
76819;BME280;65772;51.096;17.006;2023-04-28T09:55:02;100360.77;;;14.37;42.71
76819;BME280;65772;51.096;17.006;2023-04-28T09:57:34;100359.13;;;14.40;42.71
76819;BME280;65772;51.096;17.006;2023-04-28T10:00:07;100352.30;;;14.44;42.69
76819;BME280;65772;51.096;17.006;2023-04-28T10:02:38;100352.90;;;14.49;42.40
76819;BME280;65772;51.096;17.006;2023-04-28T10:05:15;100351.55;;;14.51;42.85
76819;BME280;65772;51.096;17.006;2023-04-28T10:07:46;100346.63;;;14.56;42.25
76819;BME280;65772;51.096;17.006;2023-04-28T10:10:17;100343.42;;;14.59;42.17
76819;BME280;65772;51.096;17.006;2023-04-28T10:12:48;100337.96;;;14.63;41.90
76819;BME280;65772;51.096;17.006;2023-04-28T10:15:20;100331.67;;;14.69;41.82
76819;BME280;65772;51.096;17.006;2023-04-28T10:17:52;100325.88;;;14.72;41.77
76819;BME280;65772;51.096;17.006;2023-04-28T10:20:23;100322.31;;;14.76;41.75
76819;BME280;65772;51.096;17.006;2023-04-28T10:23:00;100317.72;;;14.79;41.93
76819;BME280;65772;51.096;17.006;2023-04-28T10:25:38;100311.58;;;14.83;41.98
76819;BME280;65772;51.096;17.006;2023-04-28T10:28:09;100309.05;;;14.88;42.14
76819;BME280;65772;51.096;17.006;2023-04-28T10:30:40;100302.59;;;14.92;41.53
76819;BME280;65772;51.096;17.006;2023-04-28T10:33:26;100303.98;;;14.96;41.45
76819;BME280;65772;51.096;17.006;2023-04-28T10:35:57;100297.16;;;15.01;40.93
76819;BME280;65772;51.096;17.006;2023-04-28T10:38:28;100297.20;;;15.04;40.72
76819;BME280;65772;51.096;17.006;2023-04-28T10:40:58;100293.46;;;15.09;40.66
76819;BME280;65772;51.096;17.006;2023-04-28T10:43:38;100289.91;;;15.14;40.77
76819;BME280;65772;51.096;17.006;2023-04-28T10:46:12;100292.87;;;15.19;40.73
76819;BME280;65772;51.096;17.006;2023-04-28T10:48:56;100286.90;;;15.23;40.55
76819;BME280;65772;51.096;17.006;2023-04-28T10:51:34;100276.61;;;15.28;40.46
76819;BME280;65772;51.096;17.006;2023-04-28T10:54:09;100275.48;;;15.33;40.87
76819;BME280;65772;51.096;17.006;2023-04-28T10:56:42;100269.83;;;15.39;40.92
76819;BME280;65772;51.096;17.006;2023-04-28T10:59:32;100269.90;;;15.46;41.04
76819;BME280;65772;51.096;17.006;2023-04-28T11:05:18;100264.17;;;15.57;40.48
76819;BME280;65772;51.096;17.006;2023-04-28T11:11:22;100270.44;;;15.70;40.70
76819;BME280;65772;51.096;17.006;2023-04-28T11:14:29;100268.27;;;15.76;40.06
76819;BME280;65772;51.096;17.006;2023-04-28T11:16:52;100261.94;;;15.82;40.09
76819;BME280;65772;51.096;17.006;2023-04-28T11:19:25;100258.19;;;15.87;40.37
76819;BME280;65772;51.096;17.006;2023-04-28T11:21:58;100260.95;;;15.92;40.51
76819;BME280;65772;51.096;17.006;2023-04-28T11:24:30;100261.36;;;15.97;39.81
76819;BME280;65772;51.096;17.006;2023-04-28T11:27:01;100257.39;;;16.01;39.44
76819;BME280;65772;51.096;17.006;2023-04-28T11:29:36;100247.80;;;16.06;38.99
76819;BME280;65772;51.096;17.006;2023-04-28T11:32:08;100238.68;;;16.11;39.00
76819;BME280;65772;51.096;17.006;2023-04-28T11:34:39;100236.83;;;16.17;39.23
76819;BME280;65772;51.096;17.006;2023-04-28T11:37:15;100239.27;;;16.23;39.25
76819;BME280;65772;51.096;17.006;2023-04-28T11:39:46;100234.30;;;16.28;38.91
76819;BME280;65772;51.096;17.006;2023-04-28T11:42:17;100224.48;;;16.33;38.63
76819;BME280;65772;51.096;17.006;2023-04-28T11:44:52;100230.20;;;16.39;38.61
76819;BME280;65772;51.096;17.006;2023-04-28T11:47:34;100219.70;;;16.44;38.14
76819;BME280;65772;51.096;17.006;2023-04-28T11:50:06;100218.70;;;16.49;38.15
76819;BME280;65772;51.096;17.006;2023-04-28T11:52:48;100216.63;;;16.54;38.24
76819;BME280;65772;51.096;17.006;2023-04-28T11:55:22;100212.52;;;16.59;38.14
76819;BME280;65772;51.096;17.006;2023-04-28T11:58:18;100208.94;;;16.62;37.77
76819;BME280;65772;51.096;17.006;2023-04-28T12:01:07;100213.43;;;16.67;37.68
76819;BME280;65772;51.096;17.006;2023-04-28T12:03:44;100207.41;;;16.70;37.86
76819;BME280;65772;51.096;17.006;2023-04-28T12:06:18;100209.30;;;16.75;37.95
76819;BME280;65772;51.096;17.006;2023-04-28T12:08:49;100205.00;;;16.77;37.98
76819;BME280;65772;51.096;17.006;2023-04-28T12:11:20;100210.54;;;16.81;37.86
76819;BME280;65772;51.096;17.006;2023-04-28T12:14:06;100204.50;;;16.85;37.74
76819;BME280;65772;51.096;17.006;2023-04-28T12:16:42;100206.41;;;16.90;36.92
76819;BME280;65772;51.096;17.006;2023-04-28T12:19:15;100198.31;;;16.92;36.34
76819;BME280;65772;51.096;17.006;2023-04-28T12:21:59;100201.25;;;16.94;36.14
76819;BME280;65772;51.096;17.006;2023-04-28T12:24:31;100197.80;;;16.95;35.59
76819;BME280;65772;51.096;17.006;2023-04-28T12:27:21;100193.98;;;16.96;35.41
76819;BME280;65772;51.096;17.006;2023-04-28T12:29:53;100189.86;;;16.99;35.64
76819;BME280;65772;51.096;17.006;2023-04-28T12:32:38;100194.17;;;17.00;35.68
76819;BME280;65772;51.096;17.006;2023-04-28T12:35:10;100193.33;;;17.03;35.42
76819;BME280;65772;51.096;17.006;2023-04-28T12:37:41;100184.87;;;17.05;35.01
76819;BME280;65772;51.096;17.006;2023-04-28T12:40:12;100189.34;;;17.09;34.92
76819;BME280;65772;51.096;17.006;2023-04-28T12:42:43;100182.27;;;17.11;34.96
76819;BME280;65772;51.096;17.006;2023-04-28T12:45:13;100184.88;;;17.15;34.97
76819;BME280;65772;51.096;17.006;2023-04-28T12:47:45;100178.65;;;17.17;34.75
76819;BME280;65772;51.096;17.006;2023-04-28T12:50:17;100174.16;;;17.19;34.81
76819;BME280;65772;51.096;17.006;2023-04-28T12:52:47;100172.27;;;17.22;34.80
76819;BME280;65772;51.096;17.006;2023-04-28T12:55:18;100161.93;;;17.24;34.63
76819;BME280;65772;51.096;17.006;2023-04-28T12:57:48;100159.50;;;17.28;34.86
76819;BME280;65772;51.096;17.006;2023-04-28T13:00:20;100155.52;;;17.32;34.61
76819;BME280;65772;51.096;17.006;2023-04-28T13:02:50;100152.94;;;17.37;34.16
76819;BME280;65772;51.096;17.006;2023-04-28T13:05:21;100150.51;;;17.40;34.21
76819;BME280;65772;51.096;17.006;2023-04-28T13:07:53;100150.50;;;17.45;34.24
76819;BME280;65772;51.096;17.006;2023-04-28T13:10:24;100146.00;;;17.50;34.05
76819;BME280;65772;51.096;17.006;2023-04-28T13:12:55;100148.77;;;17.55;34.09
76819;BME280;65772;51.096;17.006;2023-04-28T13:15:25;100143.56;;;17.61;34.02